sensor_id;sensor_type;location;lat;lon;timestamp;temperature;humidity
52743;DHT22;55583;53.012;6.556;2022-08-03T00:01:15;18.30;99.90
52743;DHT22;55583;53.012;6.556;2022-08-03T00:03:41;18.30;99.90
52743;DHT22;55583;53.012;6.556;2022-08-03T00:06:06;18.20;99.90
52743;DHT22;55583;53.012;6.556;2022-08-03T00:08:32;18.20;99.90
52743;DHT22;55583;53.012;6.556;2022-08-03T00:10:58;18.20;99.90
52743;DHT22;55583;53.012;6.556;2022-08-03T00:13:24;18.20;99.90
52743;DHT22;55583;53.012;6.556;2022-08-03T00:15:50;18.20;99.90
52743;DHT22;55583;53.012;6.556;2022-08-03T00:18:15;18.20;99.90
52743;DHT22;55583;53.012;6.556;2022-08-03T00:20:41;18.30;99.90
52743;DHT22;55583;53.012;6.556;2022-08-03T00:23:07;18.10;99.90
52743;DHT22;55583;53.012;6.556;2022-08-03T00:25:34;18.10;99.90
52743;DHT22;55583;53.012;6.556;2022-08-03T00:28:01;18.10;99.90
52743;DHT22;55583;53.012;6.556;2022-08-03T00:30:27;18.10;99.90
52743;DHT22;55583;53.012;6.556;2022-08-03T00:32:52;18.10;99.90
52743;DHT22;55583;53.012;6.556;2022-08-03T00:35:18;18.20;99.90
52743;DHT22;55583;53.012;6.556;2022-08-03T00:37:44;18.10;99.90
52743;DHT22;55583;53.012;6.556;2022-08-03T00:40:13;18.10;99.90
52743;DHT22;55583;53.012;6.556;2022-08-03T00:43:06;18.00;99.90
52743;DHT22;55583;53.012;6.556;2022-08-03T00:45:37;18.00;99.90
52743;DHT22;55583;53.012;6.556;2022-08-03T00:48:04;18.00;99.90
52743;DHT22;55583;53.012;6.556;2022-08-03T00:50:33;18.00;99.90
52743;DHT22;55583;53.012;6.556;2022-08-03T00:53:00;18.00;99.90
52743;DHT22;55583;53.012;6.556;2022-08-03T00:55:27;18.00;99.90
52743;DHT22;55583;53.012;6.556;2022-08-03T00:57:53;17.90;99.90
52743;DHT22;55583;53.012;6.556;2022-08-03T01:00:22;17.90;99.90
52743;DHT22;55583;53.012;6.556;2022-08-03T01:02:48;17.90;99.90
52743;DHT22;55583;53.012;6.556;2022-08-03T01:05:14;17.90;99.90
52743;DHT22;55583;53.012;6.556;2022-08-03T01:13:32;17.80;99.90
52743;DHT22;55583;53.012;6.556;2022-08-03T01:16:07;17.80;99.90
52743;DHT22;55583;53.012;6.556;2022-08-03T01:21:25;17.80;99.90
52743;DHT22;55583;53.012;6.556;2022-08-03T01:29:44;17.80;99.90
52743;DHT22;55583;53.012;6.556;2022-08-03T01:32:19;17.80;99.90
52743;DHT22;55583;53.012;6.556;2022-08-03T01:34:56;17.80;99.90
52743;DHT22;55583;53.012;6.556;2022-08-03T01:37:26;17.80;99.90
52743;DHT22;55583;53.012;6.556;2022-08-03T01:39:55;17.70;99.90
52743;DHT22;55583;53.012;6.556;2022-08-03T01:42:24;17.70;99.90
52743;DHT22;55583;53.012;6.556;2022-08-03T01:44:51;17.70;99.90
52743;DHT22;55583;53.012;6.556;2022-08-03T01:47:19;17.70;99.90
52743;DHT22;55583;53.012;6.556;2022-08-03T01:49:47;17.60;99.90
52743;DHT22;55583;53.012;6.556;2022-08-03T01:52:17;17.60;99.90
52743;DHT22;55583;53.012;6.556;2022-08-03T01:54:47;17.60;99.90
52743;DHT22;55583;53.012;6.556;2022-08-03T01:57:14;17.60;99.90
52743;DHT22;55583;53.012;6.556;2022-08-03T01:59:41;17.50;99.90
52743;DHT22;55583;53.012;6.556;2022-08-03T02:02:11;17.50;99.90
52743;DHT22;55583;53.012;6.556;2022-08-03T02:04:37;17.50;99.90
52743;DHT22;55583;53.012;6.556;2022-08-03T02:07:04;17.50;99.90
52743;DHT22;55583;53.012;6.556;2022-08-03T02:09:31;17.50;99.90
52743;DHT22;55583;53.012;6.556;2022-08-03T02:11:57;17.50;99.90
52743;DHT22;55583;53.012;6.556;2022-08-03T02:14:25;17.40;99.90
52743;DHT22;55583;53.012;6.556;2022-08-03T02:16:53;17.40;99.90
52743;DHT22;55583;53.012;6.556;2022-08-03T02:19:20;17.40;99.90
52743;DHT22;55583;53.012;6.556;2022-08-03T02:21:48;17.40;99.90
52743;DHT22;55583;53.012;6.556;2022-08-03T02:24:15;17.30;99.90
52743;DHT22;55583;53.012;6.556;2022-08-03T02:26:41;17.30;99.90
52743;DHT22;55583;53.012;6.556;2022-08-03T02:29:17;17.40;99.90
52743;DHT22;55583;53.012;6.556;2022-08-03T02:31:45;17.30;99.90
52743;DHT22;55583;53.012;6.556;2022-08-03T02:34:13;17.40;99.90
52743;DHT22;55583;53.012;6.556;2022-08-03T02:36:40;17.30;99.90
52743;DHT22;55583;53.012;6.556;2022-08-03T02:39:09;17.40;99.90
52743;DHT22;55583;53.012;6.556;2022-08-03T02:41:49;17.50;99.90
52743;DHT22;55583;53.012;6.556;2022-08-03T02:44:17;17.30;99.90
52743;DHT22;55583;53.012;6.556;2022-08-03T02:46:45;17.40;99.90
52743;DHT22;55583;53.012;6.556;2022-08-03T02:49:14;17.40;99.90
52743;DHT22;55583;53.012;6.556;2022-08-03T02:51:41;17.30;99.90
52743;DHT22;55583;53.012;6.556;2022-08-03T02:54:08;17.30;99.90
52743;DHT22;55583;53.012;6.556;2022-08-03T02:56:36;17.30;99.90
52743;DHT22;55583;53.012;6.556;2022-08-03T02:59:02;17.30;99.90
52743;DHT22;55583;53.012;6.556;2022-08-03T03:01:29;17.30;99.90
52743;DHT22;55583;53.012;6.556;2022-08-03T03:03:56;17.30;99.90
52743;DHT22;55583;53.012;6.556;2022-08-03T03:06:24;17.30;99.90
52743;DHT22;55583;53.012;6.556;2022-08-03T03:08:52;17.30;99.90
52743;DHT22;55583;53.012;6.556;2022-08-03T03:11:20;17.30;99.90
52743;DHT22;55583;53.012;6.556;2022-08-03T03:13:48;17.20;99.90
52743;DHT22;55583;53.012;6.556;2022-08-03T03:16:15;17.20;99.90
52743;DHT22;55583;53.012;6.556;2022-08-03T03:18:43;17.20;99.90
52743;DHT22;55583;53.012;6.556;2022-08-03T03:21:09;17.20;99.90
52743;DHT22;55583;53.012;6.556;2022-08-03T03:23:37;17.30;99.90
52743;DHT22;55583;53.012;6.556;2022-08-03T03:26:04;17.20;99.90
52743;DHT22;55583;53.012;6.556;2022-08-03T03:28:30;17.20;99.90
52743;DHT22;55583;53.012;6.556;2022-08-03T03:30:57;17.20;99.90
52743;DHT22;55583;53.012;6.556;2022-08-03T03:33:23;17.20;99.90
52743;DHT22;55583;53.012;6.556;2022-08-03T03:35:50;17.60;99.90
52743;DHT22;55583;53.012;6.556;2022-08-03T03:38:18;17.20;99.90
52743;DHT22;55583;53.012;6.556;2022-08-03T03:40:44;17.20;99.90
52743;DHT22;55583;53.012;6.556;2022-08-03T03:43:11;17.20;99.90
52743;DHT22;55583;53.012;6.556;2022-08-03T03:45:40;17.20;99.90
52743;DHT22;55583;53.012;6.556;2022-08-03T03:48:06;17.20;99.90
52743;DHT22;55583;53.012;6.556;2022-08-03T03:50:33;17.20;99.90
52743;DHT22;55583;53.012;6.556;2022-08-03T03:52:59;17.20;99.90
52743;DHT22;55583;53.012;6.556;2022-08-03T03:55:24;17.10;99.90
52743;DHT22;55583;53.012;6.556;2022-08-03T03:57:50;17.20;99.90
52743;DHT22;55583;53.012;6.556;2022-08-03T04:00:17;17.20;99.90
52743;DHT22;55583;53.012;6.556;2022-08-03T04:02:43;17.20;99.90
52743;DHT22;55583;53.012;6.556;2022-08-03T04:05:09;17.20;99.90
52743;DHT22;55583;53.012;6.556;2022-08-03T04:07:58;17.20;99.90
52743;DHT22;55583;53.012;6.556;2022-08-03T04:10:46;17.20;99.90
52743;DHT22;55583;53.012;6.556;2022-08-03T04:13:25;17.20;99.90
52743;DHT22;55583;53.012;6.556;2022-08-03T04:15:52;17.20;99.90
52743;DHT22;55583;53.012;6.556;2022-08-03T04:18:20;17.20;99.90
52743;DHT22;55583;53.012;6.556;2022-08-03T04:20:47;17.20;99.90
52743;DHT22;55583;53.012;6.556;2022-08-03T04:23:16;17.20;99.90
52743;DHT22;55583;53.012;6.556;2022-08-03T04:25:45;17.20;99.90
52743;DHT22;55583;53.012;6.556;2022-08-03T04:28:13;17.20;99.90
52743;DHT22;55583;53.012;6.556;2022-08-03T04:30:44;17.20;99.90
52743;DHT22;55583;53.012;6.556;2022-08-03T04:33:13;17.30;99.90
52743;DHT22;55583;53.012;6.556;2022-08-03T04:35:41;17.30;99.90
52743;DHT22;55583;53.012;6.556;2022-08-03T04:38:08;17.30;99.90
52743;DHT22;55583;53.012;6.556;2022-08-03T04:40:37;17.30;99.90
52743;DHT22;55583;53.012;6.556;2022-08-03T04:43:04;17.40;99.90
52743;DHT22;55583;53.012;6.556;2022-08-03T04:45:31;17.90;99.90
52743;DHT22;55583;53.012;6.556;2022-08-03T04:47:58;17.30;99.90
52743;DHT22;55583;53.012;6.556;2022-08-03T04:50:25;17.80;99.90
52743;DHT22;55583;53.012;6.556;2022-08-03T04:52:53;17.50;99.90
52743;DHT22;55583;53.012;6.556;2022-08-03T04:55:28;17.50;99.90
52743;DHT22;55583;53.012;6.556;2022-08-03T04:57:54;17.60;99.90
52743;DHT22;55583;53.012;6.556;2022-08-03T05:00:20;17.60;99.90
52743;DHT22;55583;53.012;6.556;2022-08-03T05:02:46;17.70;99.90
52743;DHT22;55583;53.012;6.556;2022-08-03T05:05:11;17.70;99.90
52743;DHT22;55583;53.012;6.556;2022-08-03T05:07:37;17.70;99.90
52743;DHT22;55583;53.012;6.556;2022-08-03T05:10:04;17.80;99.90
52743;DHT22;55583;53.012;6.556;2022-08-03T05:12:30;17.80;99.90
52743;DHT22;55583;53.012;6.556;2022-08-03T05:14:56;17.90;99.90
52743;DHT22;55583;53.012;6.556;2022-08-03T05:17:21;18.00;99.90
52743;DHT22;55583;53.012;6.556;2022-08-03T05:19:47;18.00;99.90
52743;DHT22;55583;53.012;6.556;2022-08-03T05:22:12;18.10;99.90
52743;DHT22;55583;53.012;6.556;2022-08-03T05:24:41;18.10;99.90
52743;DHT22;55583;53.012;6.556;2022-08-03T05:27:06;18.10;99.90
52743;DHT22;55583;53.012;6.556;2022-08-03T05:29:32;18.30;99.90
52743;DHT22;55583;53.012;6.556;2022-08-03T05:31:57;18.40;99.90
52743;DHT22;55583;53.012;6.556;2022-08-03T05:34:23;18.40;99.90
52743;DHT22;55583;53.012;6.556;2022-08-03T05:36:49;18.50;99.90
52743;DHT22;55583;53.012;6.556;2022-08-03T05:39:17;18.60;99.90
52743;DHT22;55583;53.012;6.556;2022-08-03T05:41:42;18.70;99.90
52743;DHT22;55583;53.012;6.556;2022-08-03T05:44:08;18.80;99.90
52743;DHT22;55583;53.012;6.556;2022-08-03T05:46:34;18.80;99.90
52743;DHT22;55583;53.012;6.556;2022-08-03T05:48:59;18.90;99.90
52743;DHT22;55583;53.012;6.556;2022-08-03T05:51:25;19.00;99.90
52743;DHT22;55583;53.012;6.556;2022-08-03T05:53:50;19.10;99.90
52743;DHT22;55583;53.012;6.556;2022-08-03T05:56:16;19.20;99.90
52743;DHT22;55583;53.012;6.556;2022-08-03T05:58:46;19.40;99.90
52743;DHT22;55583;53.012;6.556;2022-08-03T06:01:11;19.50;99.90
52743;DHT22;55583;53.012;6.556;2022-08-03T06:03:37;19.60;99.90
52743;DHT22;55583;53.012;6.556;2022-08-03T06:06:03;19.80;99.90
52743;DHT22;55583;53.012;6.556;2022-08-03T06:08:28;20.00;99.90
52743;DHT22;55583;53.012;6.556;2022-08-03T06:10:54;20.20;99.90
52743;DHT22;55583;53.012;6.556;2022-08-03T06:13:20;20.40;99.90
52743;DHT22;55583;53.012;6.556;2022-08-03T06:15:46;20.70;99.90
52743;DHT22;55583;53.012;6.556;2022-08-03T06:18:11;21.00;99.90
52743;DHT22;55583;53.012;6.556;2022-08-03T06:20:37;21.30;99.90
52743;DHT22;55583;53.012;6.556;2022-08-03T06:23:03;21.50;99.90
52743;DHT22;55583;53.012;6.556;2022-08-03T06:25:28;21.70;99.90
52743;DHT22;55583;53.012;6.556;2022-08-03T06:27:55;22.00;99.90
52743;DHT22;55583;53.012;6.556;2022-08-03T06:30:20;22.30;99.90
52743;DHT22;55583;53.012;6.556;2022-08-03T06:32:46;22.50;99.90
52743;DHT22;55583;53.012;6.556;2022-08-03T06:35:12;22.70;99.90
52743;DHT22;55583;53.012;6.556;2022-08-03T06:37:46;22.90;99.90
52743;DHT22;55583;53.012;6.556;2022-08-03T06:40:13;23.30;99.90
52743;DHT22;55583;53.012;6.556;2022-08-03T06:42:40;23.30;99.90
52743;DHT22;55583;53.012;6.556;2022-08-03T06:45:06;23.50;99.90
52743;DHT22;55583;53.012;6.556;2022-08-03T06:47:34;23.80;99.90
52743;DHT22;55583;53.012;6.556;2022-08-03T06:50:00;23.90;99.90
52743;DHT22;55583;53.012;6.556;2022-08-03T06:52:26;23.80;99.90
52743;DHT22;55583;53.012;6.556;2022-08-03T06:54:51;24.00;99.90
52743;DHT22;55583;53.012;6.556;2022-08-03T06:57:17;24.00;99.90
52743;DHT22;55583;53.012;6.556;2022-08-03T06:59:43;23.90;99.90
52743;DHT22;55583;53.012;6.556;2022-08-03T07:02:09;23.40;99.90
52743;DHT22;55583;53.012;6.556;2022-08-03T07:04:36;23.20;99.90
52743;DHT22;55583;53.012;6.556;2022-08-03T07:07:01;22.90;99.90
52743;DHT22;55583;53.012;6.556;2022-08-03T07:09:27;22.60;99.90
52743;DHT22;55583;53.012;6.556;2022-08-03T07:11:53;22.50;99.90
52743;DHT22;55583;53.012;6.556;2022-08-03T07:14:20;22.30;99.90
52743;DHT22;55583;53.012;6.556;2022-08-03T07:16:45;22.10;99.90
52743;DHT22;55583;53.012;6.556;2022-08-03T07:19:11;21.50;99.90
52743;DHT22;55583;53.012;6.556;2022-08-03T07:21:37;21.80;99.90
52743;DHT22;55583;53.012;6.556;2022-08-03T07:24:03;21.70;99.90
52743;DHT22;55583;53.012;6.556;2022-08-03T07:26:28;21.60;99.90
52743;DHT22;55583;53.012;6.556;2022-08-03T07:28:54;21.60;99.90
52743;DHT22;55583;53.012;6.556;2022-08-03T07:31:20;21.40;99.90
52743;DHT22;55583;53.012;6.556;2022-08-03T07:33:48;21.40;99.90
52743;DHT22;55583;53.012;6.556;2022-08-03T07:36:14;21.40;99.90
52743;DHT22;55583;53.012;6.556;2022-08-03T07:38:39;21.40;99.90
52743;DHT22;55583;53.012;6.556;2022-08-03T07:41:06;21.40;99.90
52743;DHT22;55583;53.012;6.556;2022-08-03T07:43:32;21.40;99.90
52743;DHT22;55583;53.012;6.556;2022-08-03T07:45:57;21.40;99.90
52743;DHT22;55583;53.012;6.556;2022-08-03T07:48:23;21.50;99.90
52743;DHT22;55583;53.012;6.556;2022-08-03T07:50:48;21.50;99.90
52743;DHT22;55583;53.012;6.556;2022-08-03T07:53:15;21.60;99.90
52743;DHT22;55583;53.012;6.556;2022-08-03T07:55:41;21.60;99.90
52743;DHT22;55583;53.012;6.556;2022-08-03T07:58:09;21.60;99.90
52743;DHT22;55583;53.012;6.556;2022-08-03T08:00:37;21.60;99.90
52743;DHT22;55583;53.012;6.556;2022-08-03T08:03:03;21.60;99.90
52743;DHT22;55583;53.012;6.556;2022-08-03T08:05:29;21.70;99.90
52743;DHT22;55583;53.012;6.556;2022-08-03T08:07:55;21.70;99.90
52743;DHT22;55583;53.012;6.556;2022-08-03T08:10:21;21.70;99.90
52743;DHT22;55583;53.012;6.556;2022-08-03T08:12:47;21.90;99.90
52743;DHT22;55583;53.012;6.556;2022-08-03T08:15:12;21.90;99.90
52743;DHT22;55583;53.012;6.556;2022-08-03T08:17:52;22.00;99.90
52743;DHT22;55583;53.012;6.556;2022-08-03T08:20:21;22.00;99.90
52743;DHT22;55583;53.012;6.556;2022-08-03T08:22:47;22.10;99.90
52743;DHT22;55583;53.012;6.556;2022-08-03T08:25:13;22.10;99.90
52743;DHT22;55583;53.012;6.556;2022-08-03T08:27:43;22.20;99.90
52743;DHT22;55583;53.012;6.556;2022-08-03T08:30:09;22.30;99.90
52743;DHT22;55583;53.012;6.556;2022-08-03T08:32:38;22.30;99.90
52743;DHT22;55583;53.012;6.556;2022-08-03T08:35:08;22.40;99.90
52743;DHT22;55583;53.012;6.556;2022-08-03T08:37:34;22.60;99.90
52743;DHT22;55583;53.012;6.556;2022-08-03T08:40:01;22.60;99.90
52743;DHT22;55583;53.012;6.556;2022-08-03T08:42:26;22.70;99.90
52743;DHT22;55583;53.012;6.556;2022-08-03T08:44:52;23.00;99.90
52743;DHT22;55583;53.012;6.556;2022-08-03T08:47:23;22.90;99.90
52743;DHT22;55583;53.012;6.556;2022-08-03T08:49:51;23.00;99.90
52743;DHT22;55583;53.012;6.556;2022-08-03T08:52:20;23.00;99.90
52743;DHT22;55583;53.012;6.556;2022-08-03T08:54:48;23.20;99.90
52743;DHT22;55583;53.012;6.556;2022-08-03T08:57:14;23.30;99.90
52743;DHT22;55583;53.012;6.556;2022-08-03T08:59:44;23.50;99.90
52743;DHT22;55583;53.012;6.556;2022-08-03T09:02:12;23.70;99.90
52743;DHT22;55583;53.012;6.556;2022-08-03T09:04:38;24.10;99.90
52743;DHT22;55583;53.012;6.556;2022-08-03T09:07:04;23.90;99.90
52743;DHT22;55583;53.012;6.556;2022-08-03T09:09:30;24.40;99.90
52743;DHT22;55583;53.012;6.556;2022-08-03T09:11:56;25.30;99.90
52743;DHT22;55583;53.012;6.556;2022-08-03T09:14:22;26.30;99.90
52743;DHT22;55583;53.012;6.556;2022-08-03T09:16:58;27.60;99.90
52743;DHT22;55583;53.012;6.556;2022-08-03T09:19:28;28.60;99.90
52743;DHT22;55583;53.012;6.556;2022-08-03T09:22:07;29.40;99.90
52743;DHT22;55583;53.012;6.556;2022-08-03T09:24:34;30.20;99.90
52743;DHT22;55583;53.012;6.556;2022-08-03T09:27:00;31.30;98.60
52743;DHT22;55583;53.012;6.556;2022-08-03T09:29:31;32.40;94.10
52743;DHT22;55583;53.012;6.556;2022-08-03T09:32:01;33.30;87.50
52743;DHT22;55583;53.012;6.556;2022-08-03T09:34:27;33.70;70.50
52743;DHT22;55583;53.012;6.556;2022-08-03T09:36:53;34.10;76.80
52743;DHT22;55583;53.012;6.556;2022-08-03T09:39:21;34.60;71.00
52743;DHT22;55583;53.012;6.556;2022-08-03T09:42:04;35.20;67.00
52743;DHT22;55583;53.012;6.556;2022-08-03T09:44:38;35.90;62.50
52743;DHT22;55583;53.012;6.556;2022-08-03T09:47:07;36.70;60.20
52743;DHT22;55583;53.012;6.556;2022-08-03T09:49:34;36.90;57.60
52743;DHT22;55583;53.012;6.556;2022-08-03T09:52:10;37.20;55.90
52743;DHT22;55583;53.012;6.556;2022-08-03T09:54:36;37.50;55.50
52743;DHT22;55583;53.012;6.556;2022-08-03T09:57:02;37.90;54.40
52743;DHT22;55583;53.012;6.556;2022-08-03T09:59:29;37.80;53.60
52743;DHT22;55583;53.012;6.556;2022-08-03T10:01:56;38.10;53.00
52743;DHT22;55583;53.012;6.556;2022-08-03T10:04:23;38.50;52.50
52743;DHT22;55583;53.012;6.556;2022-08-03T10:07:11;38.90;51.70
52743;DHT22;55583;53.012;6.556;2022-08-03T10:09:37;39.30;50.10
52743;DHT22;55583;53.012;6.556;2022-08-03T10:12:12;39.20;50.70
52743;DHT22;55583;53.012;6.556;2022-08-03T10:14:40;39.10;51.60
52743;DHT22;55583;53.012;6.556;2022-08-03T10:17:12;39.20;50.90
52743;DHT22;55583;53.012;6.556;2022-08-03T10:19:39;39.40;49.80
52743;DHT22;55583;53.012;6.556;2022-08-03T10:22:20;39.60;50.00
52743;DHT22;55583;53.012;6.556;2022-08-03T10:25:06;40.00;49.50
52743;DHT22;55583;53.012;6.556;2022-08-03T10:27:35;40.50;50.50
52743;DHT22;55583;53.012;6.556;2022-08-03T10:30:04;41.00;48.50
52743;DHT22;55583;53.012;6.556;2022-08-03T10:32:34;41.10;48.40
52743;DHT22;55583;53.012;6.556;2022-08-03T10:35:11;41.10;47.90
52743;DHT22;55583;53.012;6.556;2022-08-03T10:37:41;41.50;47.00
52743;DHT22;55583;53.012;6.556;2022-08-03T10:40:12;41.60;46.40
52743;DHT22;55583;53.012;6.556;2022-08-03T10:42:40;40.90;47.20
52743;DHT22;55583;53.012;6.556;2022-08-03T10:45:20;40.10;47.90
52743;DHT22;55583;53.012;6.556;2022-08-03T10:47:48;39.00;48.50
52743;DHT22;55583;53.012;6.556;2022-08-03T10:50:14;37.80;50.20
52743;DHT22;55583;53.012;6.556;2022-08-03T10:53:03;37.30;51.10
52743;DHT22;55583;53.012;6.556;2022-08-03T10:55:37;37.10;52.40
52743;DHT22;55583;53.012;6.556;2022-08-03T11:01:06;36.80;51.40
52743;DHT22;55583;53.012;6.556;2022-08-03T11:03:33;37.20;52.80
52743;DHT22;55583;53.012;6.556;2022-08-03T11:06:15;37.80;51.60
52743;DHT22;55583;53.012;6.556;2022-08-03T11:08:47;38.30;49.40
52743;DHT22;55583;53.012;6.556;2022-08-03T11:13:57;39.30;49.40
52743;DHT22;55583;53.012;6.556;2022-08-03T11:16:26;40.40;48.50
52743;DHT22;55583;53.012;6.556;2022-08-03T11:18:59;40.80;47.60
52743;DHT22;55583;53.012;6.556;2022-08-03T11:30:07;40.80;45.70
52743;DHT22;55583;53.012;6.556;2022-08-03T11:35:13;40.20;46.00
52743;DHT22;55583;53.012;6.556;2022-08-03T11:43:07;40.60;44.90
52743;DHT22;55583;53.012;6.556;2022-08-03T11:45:34;40.40;44.60
52743;DHT22;55583;53.012;6.556;2022-08-03T11:48:15;40.20;44.90
52743;DHT22;55583;53.012;6.556;2022-08-03T11:50:42;40.00;45.30
52743;DHT22;55583;53.012;6.556;2022-08-03T11:53:14;40.10;44.80
52743;DHT22;55583;53.012;6.556;2022-08-03T11:55:41;39.80;44.70
52743;DHT22;55583;53.012;6.556;2022-08-03T11:58:15;39.50;45.20
52743;DHT22;55583;53.012;6.556;2022-08-03T12:00:40;39.90;45.50
52743;DHT22;55583;53.012;6.556;2022-08-03T12:03:10;40.30;44.90
52743;DHT22;55583;53.012;6.556;2022-08-03T12:05:40;40.50;44.30
52743;DHT22;55583;53.012;6.556;2022-08-03T12:08:08;40.70;44.40
52743;DHT22;55583;53.012;6.556;2022-08-03T12:10:35;40.70;43.90
52743;DHT22;55583;53.012;6.556;2022-08-03T12:13:02;40.70;44.10
52743;DHT22;55583;53.012;6.556;2022-08-03T12:15:31;40.90;45.00
52743;DHT22;55583;53.012;6.556;2022-08-03T12:18:02;41.40;44.00
52743;DHT22;55583;53.012;6.556;2022-08-03T12:20:29;41.90;43.60
52743;DHT22;55583;53.012;6.556;2022-08-03T12:23:02;41.70;43.10
52743;DHT22;55583;53.012;6.556;2022-08-03T12:25:29;41.70;43.40
52743;DHT22;55583;53.012;6.556;2022-08-03T12:28:09;41.60;43.20
52743;DHT22;55583;53.012;6.556;2022-08-03T12:30:37;41.00;43.00
52743;DHT22;55583;53.012;6.556;2022-08-03T12:33:14;40.70;44.00
52743;DHT22;55583;53.012;6.556;2022-08-03T12:35:40;40.70;44.60
52743;DHT22;55583;53.012;6.556;2022-08-03T12:38:05;40.80;44.20
52743;DHT22;55583;53.012;6.556;2022-08-03T12:40:31;41.00;43.40
52743;DHT22;55583;53.012;6.556;2022-08-03T12:42:57;40.80;43.60
52743;DHT22;55583;53.012;6.556;2022-08-03T12:45:24;40.70;44.20
52743;DHT22;55583;53.012;6.556;2022-08-03T12:47:51;40.80;44.10
52743;DHT22;55583;53.012;6.556;2022-08-03T12:52:53;40.90;43.70
52743;DHT22;55583;53.012;6.556;2022-08-03T12:55:20;40.80;44.10
52743;DHT22;55583;53.012;6.556;2022-08-03T12:57:46;40.80;44.00
52743;DHT22;55583;53.012;6.556;2022-08-03T13:00:17;40.60;42.20
52743;DHT22;55583;53.012;6.556;2022-08-03T13:02:43;40.20;43.20
52743;DHT22;55583;53.012;6.556;2022-08-03T13:05:13;40.10;43.10
52743;DHT22;55583;53.012;6.556;2022-08-03T13:07:43;39.80;42.00
52743;DHT22;55583;53.012;6.556;2022-08-03T13:10:10;39.60;42.20
52743;DHT22;55583;53.012;6.556;2022-08-03T13:12:49;39.40;42.60
52743;DHT22;55583;53.012;6.556;2022-08-03T13:15:15;39.30;43.50
52743;DHT22;55583;53.012;6.556;2022-08-03T13:17:40;39.20;43.60
52743;DHT22;55583;53.012;6.556;2022-08-03T13:20:06;38.90;43.80
52743;DHT22;55583;53.012;6.556;2022-08-03T13:22:32;38.80;44.40
52743;DHT22;55583;53.012;6.556;2022-08-03T13:24:58;38.70;44.30
52743;DHT22;55583;53.012;6.556;2022-08-03T13:27:26;38.20;44.80
52743;DHT22;55583;53.012;6.556;2022-08-03T13:29:52;38.00;45.50
52743;DHT22;55583;53.012;6.556;2022-08-03T13:32:18;37.80;45.50
52743;DHT22;55583;53.012;6.556;2022-08-03T13:34:44;37.70;46.10
52743;DHT22;55583;53.012;6.556;2022-08-03T13:37:11;37.70;46.60
52743;DHT22;55583;53.012;6.556;2022-08-03T13:39:37;37.70;46.30
52743;DHT22;55583;53.012;6.556;2022-08-03T13:42:03;37.70;46.10
52743;DHT22;55583;53.012;6.556;2022-08-03T13:44:30;37.70;46.40
52743;DHT22;55583;53.012;6.556;2022-08-03T13:46:56;37.60;45.20
52743;DHT22;55583;53.012;6.556;2022-08-03T13:49:21;37.40;45.70
52743;DHT22;55583;53.012;6.556;2022-08-03T13:51:47;36.90;45.00
52743;DHT22;55583;53.012;6.556;2022-08-03T13:54:13;36.70;45.60
52743;DHT22;55583;53.012;6.556;2022-08-03T13:56:38;36.40;46.50
52743;DHT22;55583;53.012;6.556;2022-08-03T13:59:07;36.30;46.70
52743;DHT22;55583;53.012;6.556;2022-08-03T14:01:35;36.40;46.60
52743;DHT22;55583;53.012;6.556;2022-08-03T14:04:00;36.20;46.20
52743;DHT22;55583;53.012;6.556;2022-08-03T14:06:26;36.10;46.80
52743;DHT22;55583;53.012;6.556;2022-08-03T14:08:52;36.10;47.00
52743;DHT22;55583;53.012;6.556;2022-08-03T14:11:17;36.20;47.10
52743;DHT22;55583;53.012;6.556;2022-08-03T14:13:43;36.20;46.30
52743;DHT22;55583;53.012;6.556;2022-08-03T14:16:09;36.00;46.20
52743;DHT22;55583;53.012;6.556;2022-08-03T14:18:34;35.90;46.70
52743;DHT22;55583;53.012;6.556;2022-08-03T14:21:02;36.00;47.40
52743;DHT22;55583;53.012;6.556;2022-08-03T14:23:28;36.10;47.50
52743;DHT22;55583;53.012;6.556;2022-08-03T14:25:53;36.20;46.30
52743;DHT22;55583;53.012;6.556;2022-08-03T14:28:20;36.10;46.30
52743;DHT22;55583;53.012;6.556;2022-08-03T14:30:46;35.90;46.00
52743;DHT22;55583;53.012;6.556;2022-08-03T14:33:13;35.60;45.70
52743;DHT22;55583;53.012;6.556;2022-08-03T14:35:39;35.40;46.30
52743;DHT22;55583;53.012;6.556;2022-08-03T14:38:04;35.50;47.10
52743;DHT22;55583;53.012;6.556;2022-08-03T14:40:30;35.40;46.50
52743;DHT22;55583;53.012;6.556;2022-08-03T14:42:56;35.20;46.60
52743;DHT22;55583;53.012;6.556;2022-08-03T14:45:22;35.10;47.30
52743;DHT22;55583;53.012;6.556;2022-08-03T14:47:47;34.80;47.40
52743;DHT22;55583;53.012;6.556;2022-08-03T14:50:13;34.50;47.60
52743;DHT22;55583;53.012;6.556;2022-08-03T14:52:39;34.50;48.20
52743;DHT22;55583;53.012;6.556;2022-08-03T14:55:05;34.70;48.50
52743;DHT22;55583;53.012;6.556;2022-08-03T14:57:30;34.80;48.50
52743;DHT22;55583;53.012;6.556;2022-08-03T14:59:56;34.90;48.40
52743;DHT22;55583;53.012;6.556;2022-08-03T15:02:21;35.00;48.20
52743;DHT22;55583;53.012;6.556;2022-08-03T15:04:47;35.00;47.60
52743;DHT22;55583;53.012;6.556;2022-08-03T15:07:13;35.00;47.80
52743;DHT22;55583;53.012;6.556;2022-08-03T15:09:38;35.00;47.60
52743;DHT22;55583;53.012;6.556;2022-08-03T15:12:05;35.00;47.30
52743;DHT22;55583;53.012;6.556;2022-08-03T15:14:31;34.90;48.20
52743;DHT22;55583;53.012;6.556;2022-08-03T15:16:57;34.90;48.80
52743;DHT22;55583;53.012;6.556;2022-08-03T15:19:23;35.00;48.10
52743;DHT22;55583;53.012;6.556;2022-08-03T15:21:51;34.70;47.30
52743;DHT22;55583;53.012;6.556;2022-08-03T15:24:17;34.50;47.40
52743;DHT22;55583;53.012;6.556;2022-08-03T15:26:42;34.30;47.80
52743;DHT22;55583;53.012;6.556;2022-08-03T15:29:08;34.30;48.70
52743;DHT22;55583;53.012;6.556;2022-08-03T15:31:33;34.40;48.90
52743;DHT22;55583;53.012;6.556;2022-08-03T15:33:59;34.30;49.00
52743;DHT22;55583;53.012;6.556;2022-08-03T15:36:25;34.50;48.80
52743;DHT22;55583;53.012;6.556;2022-08-03T15:38:51;34.70;48.50
52743;DHT22;55583;53.012;6.556;2022-08-03T15:41:17;34.70;48.10
52743;DHT22;55583;53.012;6.556;2022-08-03T15:43:43;34.60;48.70
52743;DHT22;55583;53.012;6.556;2022-08-03T15:46:11;34.30;48.00
52743;DHT22;55583;53.012;6.556;2022-08-03T15:48:37;33.80;48.80
52743;DHT22;55583;53.012;6.556;2022-08-03T15:51:04;33.40;49.00
52743;DHT22;55583;53.012;6.556;2022-08-03T15:53:30;33.10;49.10
52743;DHT22;55583;53.012;6.556;2022-08-03T15:55:55;32.80;49.40
52743;DHT22;55583;53.012;6.556;2022-08-03T15:58:21;32.60;49.30
52743;DHT22;55583;53.012;6.556;2022-08-03T16:00:46;32.30;48.90
52743;DHT22;55583;53.012;6.556;2022-08-03T16:03:12;31.90;49.20
52743;DHT22;55583;53.012;6.556;2022-08-03T16:05:38;31.80;50.70
52743;DHT22;55583;53.012;6.556;2022-08-03T16:08:03;31.70;51.00
52743;DHT22;55583;53.012;6.556;2022-08-03T16:10:29;31.60;50.70
52743;DHT22;55583;53.012;6.556;2022-08-03T16:12:56;31.50;50.80